Time;durP1;ratioP1;P1;durP2;ratioP2;P2;SDS_P1;SDS_P2;PMS_P1;PMS_P2;Temp;Humidity;BMP_temperature;BMP_pressure;BME280_temperature;BME280_humidity;BME280_pressure;Samples;Min_cycle;Max_cycle;Signal;HPM_P1;HPM_P2
2023/06/13 00:01:06;;;;;;;4.83;3.60;;;;;;;;;;6200101;28;20534;-65
2023/06/13 00:04:11;;;;;;;4.93;3.63;;;;;;;;;;6193409;28;20442;-63
2023/06/13 00:07:14;;;;;;;4.20;3.90;;;;;;;;;;6200305;28;20461;-63
2023/06/13 00:10:17;;;;;;;3.80;3.50;;;;;;;;;;6201049;28;20442;-64
2023/06/13 00:13:20;;;;;;;4.50;4.10;;;;;;;;;;6192870;28;20441;-63
2023/06/13 00:16:25;;;;;;;4.07;3.77;;;;;;;;;;6200242;28;20936;-64
2023/06/13 00:19:30;;;;;;;4.07;3.77;;;;;;;;;;6201306;28;20924;-64
2023/06/13 00:22:33;;;;;;;4.50;4.10;;;;;;;;;;6200902;28;20928;-64
2023/06/13 00:25:36;;;;;;;4.67;4.20;;;;;;;;;;6192020;28;20499;-63
2023/06/13 00:28:39;;;;;;;6.23;4.20;;;;;;;;;;6200161;28;20453;-63
2023/06/13 00:31:43;;;;;;;5.47;4.03;;;;;;;;;;6190251;28;20456;-64
2023/06/13 00:34:47;;;;;;;4.10;3.80;;;;;;;;;;6200669;28;20816;-64
2023/06/13 00:37:54;;;;;;;4.50;4.03;;;;;;;;;;6191647;28;20957;-64
2023/06/13 00:40:57;;;;;;;4.93;4.50;;;;;;;;;;6200643;28;20951;-63
2023/06/13 00:44:00;;;;;;;4.17;3.87;;;;;;;;;;6200155;28;20455;-63
2023/06/13 00:47:03;;;;;;;5.20;4.07;;;;;;;;;;6196171;28;20442;-64
2023/06/13 00:50:08;;;;;;;4.60;4.20;;;;;;;;;;6196378;28;20541;-63
2023/06/13 00:53:16;;;;;;;4.37;3.97;;;;;;;;;;6200203;28;20493;-64
2023/06/13 00:56:19;;;;;;;5.23;4.73;;;;;;;;;;6200242;28;20434;-64
2023/06/13 00:59:22;;;;;;;5.23;3.60;;;;;;;;;;6188064;28;20445;-64
2023/06/13 01:02:25;;;;;;;4.17;3.87;;;;;;;;;;6199948;28;20426;-63
2023/06/13 01:05:31;;;;;;;4.33;3.87;;;;;;;;;;6200234;28;20434;-65
2023/06/13 01:08:37;;;;;;;5.07;4.67;;;;;;;;;;6199250;28;20856;-66
2023/06/13 01:11:45;;;;;;;4.47;4.17;;;;;;;;;;6189447;28;20457;-66
2023/06/13 01:14:53;;;;;;;4.40;3.80;;;;;;;;;;6198069;28;20430;-66
2023/06/13 01:17:58;;;;;;;7.87;4.47;;;;;;;;;;6199815;28;20481;-66
2023/06/13 01:21:04;;;;;;;4.13;3.83;;;;;;;;;;6195127;28;20457;-66
2023/06/13 01:24:12;;;;;;;4.37;4.00;;;;;;;;;;6194443;28;20522;-67
2023/06/13 01:27:17;;;;;;;5.07;4.67;;;;;;;;;;6199347;28;20529;-65
2023/06/13 01:30:20;;;;;;;4.70;4.40;;;;;;;;;;6198790;28;21075;-67
2023/06/13 01:33:24;;;;;;;5.00;4.60;;;;;;;;;;6189429;28;20936;-65
2023/06/13 01:36:27;;;;;;;5.07;4.67;;;;;;;;;;6199294;28;20433;-66
2023/06/13 01:39:30;;;;;;;5.23;4.73;;;;;;;;;;6199101;28;20553;-66
2023/06/13 01:42:34;;;;;;;4.83;4.03;;;;;;;;;;6199327;28;20501;-65
2023/06/13 01:45:38;;;;;;;4.73;4.40;;;;;;;;;;6188902;28;20434;-65
2023/06/13 01:48:45;;;;;;;4.87;4.47;;;;;;;;;;6193386;28;20450;-66
2023/06/13 01:51:51;;;;;;;7.27;5.20;;;;;;;;;;6187622;28;20482;-66
2023/06/13 01:54:57;;;;;;;5.60;5.13;;;;;;;;;;6187734;28;20438;-66
2023/06/13 01:58:04;;;;;;;5.13;4.73;;;;;;;;;;6187072;28;20525;-66
2023/06/13 02:01:08;;;;;;;5.03;4.60;;;;;;;;;;6180704;28;20445;-66
2023/06/13 02:04:11;;;;;;;6.07;5.07;;;;;;;;;;6185610;28;20433;-66
2023/06/13 02:07:14;;;;;;;5.97;5.00;;;;;;;;;;6188075;28;20597;-66
2023/06/13 02:10:17;;;;;;;5.43;5.03;;;;;;;;;;6191474;28;20945;-70
2023/06/13 02:13:21;;;;;;;5.37;4.93;;;;;;;;;;6198448;28;20438;-66
2023/06/13 02:16:25;;;;;;;5.00;4.50;;;;;;;;;;6192051;28;20464;-66
2023/06/13 02:19:29;;;;;;;5.07;4.67;;;;;;;;;;6187131;28;20450;-66
2023/06/13 02:22:32;;;;;;;4.77;4.30;;;;;;;;;;6177093;28;20431;-66
2023/06/13 02:25:35;;;;;;;4.50;4.20;;;;;;;;;;6198230;28;20465;-65
2023/06/13 02:28:40;;;;;;;4.60;4.20;;;;;;;;;;6198526;28;20445;-66
2023/06/13 02:31:43;;;;;;;4.87;4.37;;;;;;;;;;6186443;28;20464;-66
2023/06/13 02:34:46;;;;;;;4.43;4.07;;;;;;;;;;6196368;28;20816;-65
2023/06/13 02:37:48;;;;;;;4.57;4.27;;;;;;;;;;6187371;28;20578;-66
2023/06/13 02:40:51;;;;;;;4.70;4.40;;;;;;;;;;6191875;28;20481;-66
2023/06/13 02:43:55;;;;;;;4.27;3.97;;;;;;;;;;6195058;28;20461;-66
2023/06/13 02:46:58;;;;;;;4.00;3.70;;;;;;;;;;6198102;28;20442;-66
2023/06/13 02:50:01;;;;;;;4.13;3.83;;;;;;;;;;6198067;28;20559;-65
2023/06/13 02:53:04;;;;;;;4.67;4.27;;;;;;;;;;6186707;28;20444;-65
2023/06/13 02:56:07;;;;;;;5.83;4.60;;;;;;;;;;6197672;28;20944;-66
2023/06/13 02:59:11;;;;;;;5.50;4.63;;;;;;;;;;6197309;28;20438;-66
2023/06/13 03:02:16;;;;;;;5.40;5.00;;;;;;;;;;6197317;28;20442;-66
2023/06/13 03:05:19;;;;;;;6.73;6.20;;;;;;;;;;6187226;28;20505;-66
2023/06/13 03:08:21;;;;;;;11.90;10.70;;;;;;;;;;6200611;28;20444;-65
2023/06/13 03:11:24;;;;;;;11.23;10.23;;;;;;;;;;6201765;28;20542;-66
2023/06/13 03:14:29;;;;;;;13.47;12.37;;;;;;;;;;6193266;28;20442;-65
2023/06/13 03:17:32;;;;;;;15.93;14.53;;;;;;;;;;6191914;28;20478;-65
2023/06/13 03:20:37;;;;;;;9.10;8.20;;;;;;;;;;6199688;28;20448;-65
2023/06/13 03:23:40;;;;;;;12.50;11.20;;;;;;;;;;6198899;28;20867;-66
2023/06/13 03:26:43;;;;;;;16.60;15.10;;;;;;;;;;6191680;28;20457;-66
2023/06/13 03:29:47;;;;;;;24.13;21.83;;;;;;;;;;6201359;28;20485;-69
2023/06/13 03:32:54;;;;;;;29.37;27.10;;;;;;;;;;6199240;28;20449;-67
2023/06/13 03:35:57;;;;;;;36.30;33.40;;;;;;;;;;6200480;28;20885;-67
2023/06/13 03:39:01;;;;;;;27.83;25.20;;;;;;;;;;6178890;28;20666;-67
2023/06/13 03:42:04;;;;;;;31.80;29.10;;;;;;;;;;6201439;28;20452;-68
2023/06/13 03:45:08;;;;;;;28.67;26.07;;;;;;;;;;6199192;28;20540;-67
2023/06/13 03:48:11;;;;;;;40.00;37.00;;;;;;;;;;6201299;28;20460;-68
2023/06/13 03:51:14;;;;;;;44.47;41.10;;;;;;;;;;6180800;28;20789;-68
2023/06/13 03:54:17;;;;;;;32.93;30.57;;;;;;;;;;6200570;28;20433;-68
2023/06/13 03:57:20;;;;;;;15.70;14.20;;;;;;;;;;6196237;28;20441;-68
2023/06/13 04:00:25;;;;;;;10.23;8.57;;;;;;;;;;6194565;28;20887;-67
2023/06/13 04:03:29;;;;;;;13.47;12.33;;;;;;;;;;6181177;28;20464;-67
2023/06/13 04:06:32;;;;;;;11.53;10.63;;;;;;;;;;6199507;28;20821;-67
2023/06/13 04:09:36;;;;;;;10.93;10.00;;;;;;;;;;6200812;28;20433;-68
2023/06/13 04:12:39;;;;;;;11.20;7.97;;;;;;;;;;6191285;28;20458;-68
2023/06/13 04:15:43;;;;;;;7.70;7.00;;;;;;;;;;6196843;28;20950;-68
2023/06/13 04:18:46;;;;;;;7.93;7.13;;;;;;;;;;6196623;28;20562;-68
2023/06/13 04:21:51;;;;;;;7.70;7.00;;;;;;;;;;6199014;28;20446;-68
2023/06/13 04:24:54;;;;;;;8.07;6.83;;;;;;;;;;6188958;28;20490;-68
2023/06/13 04:27:58;;;;;;;7.33;6.83;;;;;;;;;;6194130;28;20461;-67
2023/06/13 04:31:03;;;;;;;8.00;7.30;;;;;;;;;;6198039;28;20960;-69
2023/06/13 04:34:07;;;;;;;9.80;6.90;;;;;;;;;;6195100;28;20536;-70
2023/06/13 04:37:10;;;;;;;14.87;7.27;;;;;;;;;;6195543;28;20449;-73
2023/06/13 04:40:14;;;;;;;9.80;7.83;;;;;;;;;;6200449;28;20528;-72
2023/06/13 04:43:23;;;;;;;9.50;6.97;;;;;;;;;;6200994;28;20538;-72
2023/06/13 04:46:27;;;;;;;13.60;6.83;;;;;;;;;;6190177;28;20920;-73
2023/06/13 04:49:30;;;;;;;10.33;7.77;;;;;;;;;;6200724;28;20438;-73
2023/06/13 04:52:33;;;;;;;17.90;7.90;;;;;;;;;;6200425;28;20507;-72
2023/06/13 04:55:37;;;;;;;11.57;6.80;;;;;;;;;;6200356;28;20452;-72
2023/06/13 04:58:40;;;;;;;8.13;6.43;;;;;;;;;;6189656;28;20438;-72
2023/06/13 05:01:47;;;;;;;10.50;6.60;;;;;;;;;;6200472;28;20446;-72
2023/06/13 05:04:51;;;;;;;7.90;6.40;;;;;;;;;;6199860;28;20422;-73
2023/06/13 05:07:57;;;;;;;7.13;6.43;;;;;;;;;;6199515;28;20814;-73
2023/06/13 05:11:00;;;;;;;13.97;7.10;;;;;;;;;;6192191;28;20971;-73
2023/06/13 05:14:03;;;;;;;7.20;6.50;;;;;;;;;;6200193;28;20577;-72
2023/06/13 05:17:09;;;;;;;9.70;7.40;;;;;;;;;;6199975;28;20447;-73
2023/06/13 05:20:12;;;;;;;8.43;7.63;;;;;;;;;;6189853;28;20596;-70
2023/06/13 05:23:15;;;;;;;13.90;8.10;;;;;;;;;;6199495;28;20438;-70
2023/06/13 05:26:18;;;;;;;9.90;7.80;;;;;;;;;;6199704;28;20762;-70
2023/06/13 05:29:21;;;;;;;10.00;7.90;;;;;;;;;;6196332;28;20445;-70
2023/06/13 05:32:25;;;;;;;9.70;7.80;;;;;;;;;;6169166;28;20458;-70
2023/06/13 05:35:28;;;;;;;8.00;7.30;;;;;;;;;;6175083;28;20541;-71
2023/06/13 05:38:41;;;;;;;9.13;7.90;;;;;;;;;;6175358;28;20494;-70
2023/06/13 05:41:44;;;;;;;8.30;7.50;;;;;;;;;;6177434;28;20448;-70
2023/06/13 05:44:47;;;;;;;8.60;7.80;;;;;;;;;;6188080;28;20434;-69
2023/06/13 05:47:51;;;;;;;8.73;7.73;;;;;;;;;;6199245;28;20446;-64
2023/06/13 05:50:54;;;;;;;7.13;6.53;;;;;;;;;;6196987;28;20434;-63
2023/06/13 05:53:57;;;;;;;8.20;6.80;;;;;;;;;;6187710;28;20456;-64
2023/06/13 05:57:00;;;;;;;7.53;6.70;;;;;;;;;;6193692;28;20453;-63
2023/06/13 06:00:06;;;;;;;7.37;6.00;;;;;;;;;;6199197;28;20893;-64
2023/06/13 06:03:11;;;;;;;5.93;5.53;;;;;;;;;;6199169;28;20505;-63
2023/06/13 06:06:14;;;;;;;6.47;5.87;;;;;;;;;;6182590;28;20446;-64
2023/06/13 06:09:17;;;;;;;6.50;6.00;;;;;;;;;;6199020;28;20900;-64
2023/06/13 06:12:20;;;;;;;6.13;5.53;;;;;;;;;;6198779;28;20449;-64
2023/06/13 06:15:23;;;;;;;7.30;6.70;;;;;;;;;;6198868;28;20465;-63
2023/06/13 06:18:27;;;;;;;6.50;5.90;;;;;;;;;;6184777;28;20449;-63
2023/06/13 06:21:30;;;;;;;6.80;6.30;;;;;;;;;;6198577;28;20452;-63
2023/06/13 06:24:33;;;;;;;9.00;7.00;;;;;;;;;;6191501;28;20434;-64
2023/06/13 06:27:35;;;;;;;8.53;6.20;;;;;;;;;;6193698;28;20917;-65
2023/06/13 06:30:38;;;;;;;6.10;5.60;;;;;;;;;;6189777;28;20457;-64
2023/06/13 06:33:43;;;;;;;6.77;6.17;;;;;;;;;;6198561;28;20829;-64
2023/06/13 06:36:45;;;;;;;8.63;6.50;;;;;;;;;;6198304;28;20500;-64
2023/06/13 06:39:48;;;;;;;7.40;6.30;;;;;;;;;;6179755;28;20454;-64
2023/06/13 06:42:51;;;;;;;5.77;5.30;;;;;;;;;;6187187;28;20439;-64
2023/06/13 06:45:55;;;;;;;6.37;5.73;;;;;;;;;;6179511;28;20451;-64
2023/06/13 06:48:59;;;;;;;6.03;5.33;;;;;;;;;;6193457;28;20445;-64
2023/06/13 06:52:02;;;;;;;6.27;5.77;;;;;;;;;;6187220;28;20442;-64
2023/06/13 06:55:06;;;;;;;6.20;5.67;;;;;;;;;;6198169;28;20442;-64
2023/06/13 06:58:09;;;;;;;6.43;5.57;;;;;;;;;;6198279;28;20488;-67
2023/06/13 07:01:14;;;;;;;6.03;5.40;;;;;;;;;;6198110;28;20445;-67
2023/06/13 07:04:18;;;;;;;5.10;4.70;;;;;;;;;;6188044;28;20464;-67
2023/06/13 07:07:21;;;;;;;6.23;5.43;;;;;;;;;;6197265;28;20458;-68
2023/06/13 07:10:26;;;;;;;5.93;4.90;;;;;;;;;;6198205;28;20517;-67
2023/06/13 07:13:29;;;;;;;5.37;4.80;;;;;;;;;;6192485;28;20482;-66
2023/06/13 07:16:31;;;;;;;6.27;4.80;;;;;;;;;;6192702;28;20588;-67
2023/06/13 07:19:36;;;;;;;5.30;4.90;;;;;;;;;;6197804;28;20445;-67
2023/06/13 07:22:39;;;;;;;5.27;4.63;;;;;;;;;;6196237;28;20448;-67
2023/06/13 07:25:42;;;;;;;5.10;4.57;;;;;;;;;;6186967;28;20800;-66
2023/06/13 07:28:44;;;;;;;4.73;4.33;;;;;;;;;;6198107;28;20430;-67
2023/06/13 07:31:48;;;;;;;5.27;4.03;;;;;;;;;;6197807;28;20434;-66
2023/06/13 07:34:52;;;;;;;4.83;4.43;;;;;;;;;;6197475;28;20458;-65
2023/06/13 07:37:58;;;;;;;4.60;4.17;;;;;;;;;;6184386;28;20497;-67
2023/06/13 07:41:01;;;;;;;4.60;4.10;;;;;;;;;;6187497;28;20446;-67
2023/06/13 07:44:04;;;;;;;4.13;3.83;;;;;;;;;;6197361;28;20940;-66
2023/06/13 07:47:06;;;;;;;3.93;3.63;;;;;;;;;;6195755;28;20429;-66
2023/06/13 07:50:11;;;;;;;4.10;3.80;;;;;;;;;;6190209;28;20505;-67
2023/06/13 07:53:14;;;;;;;5.30;3.87;;;;;;;;;;6197323;28;21038;-67
2023/06/13 07:56:17;;;;;;;4.80;4.07;;;;;;;;;;6201412;28;20430;-67
2023/06/13 07:59:20;;;;;;;4.47;3.83;;;;;;;;;;6191836;28;20552;-66
2023/06/13 08:02:23;;;;;;;4.00;3.70;;;;;;;;;;6200912;28;20445;-67
2023/06/13 08:05:28;;;;;;;3.90;3.60;;;;;;;;;;6201543;28;20483;-64
2023/06/13 08:08:31;;;;;;;4.40;4.07;;;;;;;;;;6193113;28;20484;-66
2023/06/13 08:11:34;;;;;;;4.67;4.37;;;;;;;;;;6180470;28;20453;-66
2023/06/13 08:14:37;;;;;;;7.00;4.70;;;;;;;;;;6199921;28;21027;-66
2023/06/13 08:17:41;;;;;;;4.30;4.00;;;;;;;;;;6200863;28;20446;-65
2023/06/13 08:20:48;;;;;;;5.07;4.67;;;;;;;;;;6201013;28;20449;-66
2023/06/13 08:23:51;;;;;;;5.10;4.70;;;;;;;;;;6190679;28;20446;-66
2023/06/13 08:26:55;;;;;;;5.00;4.23;;;;;;;;;;6200783;28;20924;-66
2023/06/13 08:29:58;;;;;;;4.60;4.30;;;;;;;;;;6197027;28;20455;-66
2023/06/13 08:33:02;;;;;;;4.40;4.10;;;;;;;;;;6195416;28;20461;-66
2023/06/13 08:36:07;;;;;;;5.37;4.90;;;;;;;;;;6184924;28;20442;-66
2023/06/13 08:39:29;;;;;;;4.53;4.23;;;;;;;;;;6187975;28;20435;-65
2023/06/13 08:42:32;;;;;;;5.20;4.80;;;;;;;;;;6176438;28;20439;-66
2023/06/13 08:45:35;;;;;;;5.50;4.90;;;;;;;;;;6166020;28;20438;-65
2023/06/13 08:48:38;;;;;;;7.33;5.00;;;;;;;;;;6199456;28;20441;-66
2023/06/13 08:51:43;;;;;;;5.70;5.40;;;;;;;;;;6200604;28;20441;-65
2023/06/13 08:54:46;;;;;;;4.97;4.60;;;;;;;;;;6200270;28;20477;-65
2023/06/13 08:58:06;;;;;;;6.80;5.20;;;;;;;;;;6184338;28;20449;-65
2023/06/13 09:01:09;;;;;;;7.03;5.60;;;;;;;;;;6200260;28;20445;-65
2023/06/13 09:04:13;;;;;;;6.50;5.90;;;;;;;;;;6200015;28;20925;-65
2023/06/13 09:07:18;;;;;;;7.00;6.50;;;;;;;;;;6194188;28;20458;-66
2023/06/13 09:10:21;;;;;;;7.60;6.90;;;;;;;;;;6196767;28;20994;-65
2023/06/13 09:13:24;;;;;;;6.90;6.30;;;;;;;;;;6199890;28;20449;-65
2023/06/13 09:16:27;;;;;;;9.17;6.57;;;;;;;;;;6200421;28;20440;-65
2023/06/13 09:19:30;;;;;;;6.90;6.27;;;;;;;;;;6189091;28;20869;-65
2023/06/13 09:22:36;;;;;;;6.43;5.93;;;;;;;;;;6200108;28;20445;-65
2023/06/13 09:25:39;;;;;;;6.80;6.20;;;;;;;;;;6199825;28;20430;-65
2023/06/13 09:28:43;;;;;;;7.17;6.10;;;;;;;;;;6199886;28;20954;-66
2023/06/13 09:31:46;;;;;;;6.20;5.60;;;;;;;;;;6188980;28;20453;-65
2023/06/13 09:34:50;;;;;;;6.73;5.30;;;;;;;;;;6199589;28;20464;-65
2023/06/13 09:37:54;;;;;;;5.80;5.30;;;;;;;;;;6199548;28;20438;-65
2023/06/13 09:40:57;;;;;;;5.40;5.00;;;;;;;;;;6194275;28;20472;-65
2023/06/13 09:44:03;;;;;;;5.87;5.33;;;;;;;;;;6188097;28;20443;-65
2023/06/13 09:47:06;;;;;;;5.73;5.23;;;;;;;;;;6199181;28;20884;-65
2023/06/13 09:50:10;;;;;;;5.80;5.30;;;;;;;;;;6199488;28;20817;-65
2023/06/13 09:53:14;;;;;;;5.50;5.10;;;;;;;;;;6188773;28;20820;-65
2023/06/13 09:56:17;;;;;;;5.57;5.17;;;;;;;;;;6194186;28;20461;-65
2023/06/13 09:59:23;;;;;;;4.90;4.50;;;;;;;;;;6199358;28;20971;-66
2023/06/13 10:02:26;;;;;;;6.20;5.60;;;;;;;;;;6198606;28;20456;-65
2023/06/13 10:05:30;;;;;;;5.47;4.97;;;;;;;;;;6188654;28;21007;-65
2023/06/13 10:08:34;;;;;;;6.23;5.40;;;;;;;;;;6198599;28;20812;-64
2023/06/13 10:11:39;;;;;;;6.77;6.10;;;;;;;;;;6198777;28;20544;-64
2023/06/13 10:14:43;;;;;;;5.40;5.00;;;;;;;;;;6198449;28;20477;-65
2023/06/13 10:17:46;;;;;;;6.47;5.40;;;;;;;;;;6190064;28;20449;-65
2023/06/13 10:20:50;;;;;;;5.63;5.17;;;;;;;;;;6198969;28;20457;-65
2023/06/13 10:23:55;;;;;;;6.20;5.70;;;;;;;;;;6198983;28;20434;-64
2023/06/13 10:27:00;;;;;;;7.20;5.20;;;;;;;;;;6189288;28;20450;-71
2023/06/13 10:30:09;;;;;;;6.30;5.63;;;;;;;;;;6198388;28;20819;-71
2023/06/13 10:33:27;;;;;;;6.70;4.77;;;;;;;;;;6198952;28;20505;-71
2023/06/13 10:36:41;;;;;;;6.57;6.07;;;;;;;;;;6196292;28;20820;-72
2023/06/13 10:39:56;;;;;;;5.43;5.00;;;;;;;;;;6187502;28;20449;-70
2023/06/13 10:43:01;;;;;;;5.30;4.90;;;;;;;;;;6198734;28;20427;-72
2023/06/13 10:46:06;;;;;;;8.07;7.27;;;;;;;;;;6198663;28;20433;-72
2023/06/13 10:49:14;;;;;;;13.30;6.90;;;;;;;;;;6193555;28;21007;-73
2023/06/13 10:52:19;;;;;;;9.23;8.30;;;;;;;;;;6192829;28;20890;-71
2023/06/13 10:55:27;;;;;;;9.27;7.27;;;;;;;;;;6191550;28;20457;-69
2023/06/13 10:58:31;;;;;;;7.87;7.17;;;;;;;;;;6184604;28;20819;-70
2023/06/13 11:01:34;;;;;;;11.40;7.57;;;;;;;;;;6169382;28;20455;-70
2023/06/13 11:04:39;;;;;;;13.13;7.70;;;;;;;;;;6189256;28;20449;-71
2023/06/13 11:07:47;;;;;;;10.90;8.07;;;;;;;;;;6197821;28;20508;-71
2023/06/13 11:10:51;;;;;;;7.57;6.87;;;;;;;;;;6198458;28;20471;-70
2023/06/13 11:13:55;;;;;;;7.37;6.63;;;;;;;;;;6187713;28;20949;-70
2023/06/13 11:16:58;;;;;;;8.10;6.90;;;;;;;;;;6198538;28;20441;-69
2023/06/13 11:20:01;;;;;;;6.50;5.90;;;;;;;;;;6192142;28;20518;-70
2023/06/13 11:23:04;;;;;;;5.97;5.53;;;;;;;;;;6183511;28;20440;-69
2023/06/13 11:26:08;;;;;;;7.10;5.97;;;;;;;;;;6178157;28;20473;-71
2023/06/13 11:29:12;;;;;;;6.50;5.90;;;;;;;;;;6178867;28;20571;-70
2023/06/13 11:32:14;;;;;;;5.90;5.50;;;;;;;;;;6177967;28;20473;-70
2023/06/13 11:35:19;;;;;;;6.13;5.73;;;;;;;;;;6168000;28;20462;-69
2023/06/13 11:38:25;;;;;;;5.60;5.20;;;;;;;;;;6177460;28;20446;-64
2023/06/13 11:41:30;;;;;;;6.10;5.50;;;;;;;;;;6177885;28;20423;-64
2023/06/13 11:44:33;;;;;;;5.30;5.00;;;;;;;;;;6177336;28;20549;-65
2023/06/13 11:47:35;;;;;;;5.63;5.17;;;;;;;;;;6167426;28;20458;-64
2023/06/13 11:50:38;;;;;;;5.23;4.80;;;;;;;;;;6177531;28;20450;-64
2023/06/13 11:53:52;;;;;;;5.30;4.90;;;;;;;;;;6182514;28;20808;-64
2023/06/13 11:56:56;;;;;;;4.90;4.60;;;;;;;;;;6201416;28;20442;-64
2023/06/13 11:59:59;;;;;;;4.83;4.43;;;;;;;;;;6191118;28;20433;-65
2023/06/13 12:03:05;;;;;;;5.20;4.40;;;;;;;;;;6200980;28;20442;-65
2023/06/13 12:06:08;;;;;;;4.40;4.10;;;;;;;;;;6200350;28;20964;-65
2023/06/13 12:09:12;;;;;;;4.50;4.20;;;;;;;;;;6193370;28;20815;-64
2023/06/13 12:12:17;;;;;;;5.80;5.40;;;;;;;;;;6199884;28;20434;-65
2023/06/13 12:15:24;;;;;;;6.20;5.80;;;;;;;;;;6200371;28;20450;-65
2023/06/13 12:18:28;;;;;;;6.70;6.20;;;;;;;;;;6200754;28;20510;-65
2023/06/13 12:21:31;;;;;;;6.47;5.97;;;;;;;;;;6190880;28;20442;-65
2023/06/13 12:24:34;;;;;;;5.73;5.23;;;;;;;;;;6184284;28;20533;-65
2023/06/13 12:27:39;;;;;;;5.80;5.30;;;;;;;;;;6176793;28;20529;-64
2023/06/13 12:30:42;;;;;;;5.37;4.87;;;;;;;;;;6193854;28;20445;-64
2023/06/13 12:33:48;;;;;;;6.10;5.50;;;;;;;;;;6189504;28;20509;-65
2023/06/13 12:36:54;;;;;;;5.70;5.20;;;;;;;;;;6180828;28;20438;-64
2023/06/13 12:40:06;;;;;;;5.90;5.50;;;;;;;;;;6200000;28;20520;-65
2023/06/13 12:43:11;;;;;;;5.53;5.13;;;;;;;;;;6187999;28;20796;-64
2023/06/13 12:46:14;;;;;;;5.60;4.90;;;;;;;;;;6193982;28;20474;-70
2023/06/13 12:49:19;;;;;;;5.30;4.80;;;;;;;;;;6200235;28;20445;-70
2023/06/13 12:52:22;;;;;;;5.30;4.80;;;;;;;;;;6192407;28;21005;-70
2023/06/13 12:55:25;;;;;;;5.83;5.10;;;;;;;;;;6180055;28;20450;-71
2023/06/13 12:58:31;;;;;;;5.80;5.30;;;;;;;;;;6200554;28;20805;-71
2023/06/13 13:01:34;;;;;;;6.03;5.50;;;;;;;;;;6193129;28;20604;-70
2023/06/13 13:04:38;;;;;;;5.60;5.20;;;;;;;;;;6191852;28;20499;-71
2023/06/13 13:07:41;;;;;;;5.77;5.27;;;;;;;;;;6188836;28;20446;-71
2023/06/13 13:10:44;;;;;;;5.37;4.87;;;;;;;;;;6200197;28;20941;-70
2023/06/13 13:13:48;;;;;;;5.03;4.63;;;;;;;;;;6200110;28;20534;-70
2023/06/13 13:16:52;;;;;;;6.17;5.03;;;;;;;;;;6194757;28;20450;-69
2023/06/13 13:19:54;;;;;;;6.30;4.43;;;;;;;;;;6194952;28;20456;-70
2023/06/13 13:22:57;;;;;;;4.77;4.37;;;;;;;;;;6200075;28;20532;-70
2023/06/13 13:26:00;;;;;;;4.77;4.43;;;;;;;;;;6199882;28;20941;-69
2023/06/13 13:29:04;;;;;;;4.33;4.00;;;;;;;;;;6188945;28;20894;-69
2023/06/13 13:32:08;;;;;;;4.47;4.03;;;;;;;;;;6199796;28;20453;-70
2023/06/13 13:35:11;;;;;;;4.67;4.27;;;;;;;;;;6199708;28;20433;-71
2023/06/13 13:38:14;;;;;;;5.80;4.20;;;;;;;;;;6199621;28;20434;-70
2023/06/13 13:41:17;;;;;;;8.73;4.60;;;;;;;;;;6189305;28;20987;-71
2023/06/13 13:44:22;;;;;;;18.40;6.60;;;;;;;;;;6199679;28;20837;-70
2023/06/13 13:47:24;;;;;;;8.10;6.13;;;;;;;;;;6198855;28;20529;-70
2023/06/13 13:50:27;;;;;;;8.60;6.20;;;;;;;;;;6179919;28;21007;-71
2023/06/13 13:53:30;;;;;;;6.57;5.70;;;;;;;;;;6187752;28;21067;-72
2023/06/13 13:56:33;;;;;;;5.90;5.27;;;;;;;;;;6194801;28;20941;-66
2023/06/13 13:59:37;;;;;;;7.73;4.80;;;;;;;;;;6175134;28;20455;-66
2023/06/13 14:02:41;;;;;;;7.10;5.90;;;;;;;;;;6168895;28;20435;-67
2023/06/13 14:05:44;;;;;;;8.23;5.43;;;;;;;;;;6171972;28;20458;-65
2023/06/13 14:08:47;;;;;;;6.23;5.30;;;;;;;;;;6174435;28;20529;-65
2023/06/13 14:11:50;;;;;;;6.50;5.20;;;;;;;;;;6174860;28;20458;-65
2023/06/13 14:14:54;;;;;;;6.93;5.40;;;;;;;;;;6164930;28;20525;-66
2023/06/13 14:17:57;;;;;;;7.83;5.50;;;;;;;;;;6174382;28;20647;-64
2023/06/13 14:21:01;;;;;;;5.83;5.13;;;;;;;;;;6182568;28;20537;-65
2023/06/13 14:24:05;;;;;;;8.00;5.30;;;;;;;;;;6198823;28;20453;-64
2023/06/13 14:27:09;;;;;;;6.97;5.60;;;;;;;;;;6189566;28;20968;-64
2023/06/13 14:30:14;;;;;;;7.30;5.20;;;;;;;;;;6198681;28;20450;-63
2023/06/13 14:33:19;;;;;;;8.83;4.83;;;;;;;;;;6199072;28;20418;-63
2023/06/13 14:36:22;;;;;;;6.70;4.90;;;;;;;;;;6193931;28;20503;-63
2023/06/13 14:39:25;;;;;;;5.33;4.93;;;;;;;;;;6194566;28;20520;-64
2023/06/13 14:42:28;;;;;;;6.93;6.33;;;;;;;;;;6198649;28;20524;-62
2023/06/13 14:45:32;;;;;;;7.80;7.10;;;;;;;;;;6198484;28;20430;-64
2023/06/13 14:48:36;;;;;;;8.37;7.60;;;;;;;;;;6185951;28;20457;-63
2023/06/13 14:51:39;;;;;;;7.67;6.70;;;;;;;;;;6177356;28;20447;-62
2023/06/13 14:54:41;;;;;;;7.10;6.50;;;;;;;;;;6174088;28;20505;-62
2023/06/13 14:57:45;;;;;;;7.97;7.27;;;;;;;;;;6174211;28;20453;-62
2023/06/13 15:00:49;;;;;;;8.50;6.93;;;;;;;;;;6165703;28;20484;-62
2023/06/13 15:03:52;;;;;;;7.13;6.40;;;;;;;;;;6176353;28;20487;-62
2023/06/13 15:06:56;;;;;;;6.60;6.00;;;;;;;;;;6185584;28;20464;-73
2023/06/13 15:09:59;;;;;;;10.13;8.30;;;;;;;;;;6202512;28;20549;-74
2023/06/13 15:13:02;;;;;;;11.10;10.07;;;;;;;;;;6192308;28;20438;-72
2023/06/13 15:16:07;;;;;;;9.53;8.73;;;;;;;;;;6202566;28;20454;-73
2023/06/13 15:19:10;;;;;;;10.27;9.30;;;;;;;;;;6202549;28;20438;-74
2023/06/13 15:22:13;;;;;;;11.20;10.10;;;;;;;;;;6196347;28;20831;-72
2023/06/13 15:25:16;;;;;;;17.23;15.50;;;;;;;;;;6199295;28;20579;-76
2023/06/13 15:28:19;;;;;;;15.03;13.40;;;;;;;;;;6197730;28;20437;-73
2023/06/13 15:31:23;;;;;;;18.60;11.00;;;;;;;;;;6202698;28;20437;-71
2023/06/13 15:34:27;;;;;;;11.50;10.50;;;;;;;;;;6179867;28;20450;-73
2023/06/13 15:37:30;;;;;;;13.73;12.27;;;;;;;;;;6193360;28;20449;-70
2023/06/13 15:40:34;;;;;;;12.97;11.63;;;;;;;;;;6201647;28;20568;-70
2023/06/13 15:43:39;;;;;;;12.07;10.90;;;;;;;;;;6199577;28;20984;-69
2023/06/13 15:46:45;;;;;;;18.60;16.33;;;;;;;;;;6190451;28;20449;-69
2023/06/13 15:49:48;;;;;;;11.40;10.50;;;;;;;;;;6199811;28;20449;-70
2023/06/13 15:52:51;;;;;;;11.80;10.70;;;;;;;;;;6200678;28;20521;-68
2023/06/13 15:55:56;;;;;;;11.20;10.30;;;;;;;;;;6196240;28;20981;-70
2023/06/13 15:58:59;;;;;;;10.20;9.40;;;;;;;;;;6195311;28;20476;-69
2023/06/13 16:02:04;;;;;;;10.57;9.57;;;;;;;;;;6200477;28;20433;-68
2023/06/13 16:05:07;;;;;;;10.50;9.10;;;;;;;;;;6200073;28;20553;-69
2023/06/13 16:08:10;;;;;;;11.90;8.63;;;;;;;;;;6188346;28;20453;-68
2023/06/13 16:11:13;;;;;;;18.07;12.07;;;;;;;;;;6187020;28;20481;-68
2023/06/13 16:14:16;;;;;;;12.60;11.30;;;;;;;;;;6199428;28;21002;-71
2023/06/13 16:17:20;;;;;;;11.33;10.30;;;;;;;;;;6196384;28;20446;-64
2023/06/13 16:20:23;;;;;;;12.93;11.73;;;;;;;;;;6188448;28;20449;-65
2023/06/13 16:23:26;;;;;;;12.40;11.10;;;;;;;;;;6198079;28;20445;-65
2023/06/13 16:26:29;;;;;;;12.00;10.83;;;;;;;;;;6200096;28;20446;-65
2023/06/13 16:29:32;;;;;;;12.00;10.90;;;;;;;;;;6199340;28;20438;-63
2023/06/13 16:32:38;;;;;;;11.90;10.90;;;;;;;;;;6188702;28;20516;-62
2023/06/13 16:35:41;;;;;;;12.50;10.70;;;;;;;;;;6200170;28;20521;-63
2023/06/13 16:38:43;;;;;;;11.57;10.37;;;;;;;;;;6200065;28;20450;-63
2023/06/13 16:41:46;;;;;;;11.57;10.17;;;;;;;;;;6191514;28;20438;-66
2023/06/13 16:44:49;;;;;;;11.37;10.17;;;;;;;;;;6192782;28;20528;-63
2023/06/13 16:47:53;;;;;;;12.00;10.90;;;;;;;;;;6195492;28;20586;-64
2023/06/13 16:50:56;;;;;;;11.13;10.23;;;;;;;;;;6199773;28;20540;-65
2023/06/13 16:53:59;;;;;;;14.90;13.40;;;;;;;;;;6189397;28;20448;-64
2023/06/13 16:57:02;;;;;;;13.10;12.00;;;;;;;;;;6197976;28;20858;-64
2023/06/13 17:00:07;;;;;;;14.40;13.00;;;;;;;;;;6199607;28;20772;-64
2023/06/13 17:03:12;;;;;;;13.97;12.80;;;;;;;;;;6198850;28;20442;-63
2023/06/13 17:06:15;;;;;;;16.50;15.10;;;;;;;;;;6178410;28;20447;-64
2023/06/13 17:09:18;;;;;;;19.20;17.30;;;;;;;;;;6195868;28;20537;-64
2023/06/13 17:12:21;;;;;;;16.17;11.97;;;;;;;;;;6191403;28;20920;-64
2023/06/13 17:15:24;;;;;;;19.20;11.67;;;;;;;;;;6194399;28;20521;-67
2023/06/13 17:18:31;;;;;;;13.07;10.70;;;;;;;;;;6193013;28;20821;-68
2023/06/13 17:21:35;;;;;;;11.07;9.57;;;;;;;;;;6195533;28;20442;-69
2023/06/13 17:24:37;;;;;;;10.10;9.20;;;;;;;;;;6199531;28;20948;-70
2023/06/13 17:27:40;;;;;;;10.40;9.70;;;;;;;;;;6188809;28;20605;-68
2023/06/13 17:30:43;;;;;;;9.40;8.50;;;;;;;;;;6199305;28;20449;-69
2023/06/13 17:33:47;;;;;;;9.07;8.23;;;;;;;;;;6199160;28;20849;-68
2023/06/13 17:36:53;;;;;;;12.17;7.83;;;;;;;;;;6197461;28;20448;-68
2023/06/13 17:39:56;;;;;;;12.33;11.10;;;;;;;;;;6176930;28;20554;-65
2023/06/13 17:42:59;;;;;;;19.80;14.60;;;;;;;;;;6190297;28;20434;-65
2023/06/13 17:46:02;;;;;;;16.23;14.00;;;;;;;;;;6197777;28;20768;-64
2023/06/13 17:49:06;;;;;;;15.17;13.30;;;;;;;;;;6192396;28;20548;-65
2023/06/13 17:52:09;;;;;;;14.33;12.83;;;;;;;;;;6173756;28;20442;-65
2023/06/13 17:55:12;;;;;;;14.27;12.70;;;;;;;;;;6198934;28;20440;-62
2023/06/13 17:58:15;;;;;;;16.10;14.67;;;;;;;;;;6188151;28;20938;-63
2023/06/13 18:01:18;;;;;;;17.40;15.83;;;;;;;;;;6191029;28;20829;-62
2023/06/13 18:04:23;;;;;;;15.70;14.30;;;;;;;;;;6187528;28;20463;-62
2023/06/13 18:07:26;;;;;;;13.50;12.20;;;;;;;;;;6183964;28;20453;-61
2023/06/13 18:10:29;;;;;;;14.23;12.87;;;;;;;;;;6186284;28;20533;-66
2023/06/13 18:13:32;;;;;;;18.60;16.90;;;;;;;;;;6186943;28;20448;-65
2023/06/13 18:16:35;;;;;;;20.27;18.47;;;;;;;;;;6198399;28;20433;-64